createdAt,value
2019-05-15T11:39:19.344Z,13.69
2019-05-15T11:39:21.331Z,13.69
2019-05-15T11:39:45.521Z,13.69
2019-05-15T11:41:21.428Z,13.75
2019-05-15T11:43:21.367Z,13.75
2019-05-15T11:45:21.406Z,13.63
2019-05-15T11:47:21.414Z,13.69
2019-05-15T11:49:21.417Z,13.88
2019-05-15T11:51:21.432Z,13.94
2019-05-15T11:53:21.390Z,13.81
2019-05-15T11:54:38.710Z,13.88
2019-05-15T11:55:21.339Z,13.88
2019-05-15T11:57:35.840Z,13.88
2019-05-15T11:59:21.395Z,14
2019-05-15T12:01:21.351Z,13.94
2019-05-15T12:03:24.589Z,14
2019-05-15T12:05:21.437Z,14.19
2019-05-15T12:07:21.297Z,14.13
2019-05-15T12:09:22.285Z,14.06
2019-05-15T12:09:38.897Z,14.06
2019-05-15T12:11:33.021Z,14
2019-05-15T12:13:21.383Z,14.06
2019-05-15T12:15:21.466Z,14.06
2019-05-15T12:17:21.404Z,14.19
2019-05-15T12:19:21.497Z,14.25
2019-05-15T12:21:21.432Z,14.13
2019-05-15T12:23:21.444Z,14.25
2019-05-15T12:24:40.534Z,14.44
2019-05-15T12:25:21.386Z,14.44
2019-05-15T12:27:21.360Z,14.38
2019-05-15T12:29:21.368Z,14.56
2019-05-15T12:31:24.652Z,14.44
2019-05-15T12:33:28.363Z,14.38
2019-05-15T12:35:21.356Z,14.25
2019-05-15T12:37:21.375Z,14.19
2019-05-15T12:39:22.407Z,14.44
2019-05-15T12:39:40.855Z,14.44
2019-05-15T12:59:41.370Z,14.88
2019-05-15T13:01:21.835Z,14.81
2019-05-15T13:03:22.237Z,15.19
2019-05-15T13:05:21.410Z,15.13
2019-05-15T13:07:21.429Z,15
2019-05-15T13:09:21.414Z,14.69
2019-05-15T13:09:38.691Z,14.56
2019-05-15T13:11:21.418Z,14.75
2019-05-15T13:13:21.439Z,14.81
2019-05-15T13:15:21.341Z,14.81
2019-05-15T13:17:21.411Z,15.13
2019-05-15T13:19:21.482Z,15.06
2019-05-15T13:21:21.429Z,15.31
2019-05-15T13:23:22.230Z,15.31
2019-05-15T13:24:38.738Z,15.19
2019-05-15T13:25:23.273Z,15.25
2019-05-15T13:27:21.413Z,15.38
2019-05-15T13:29:22.295Z,15.44
2019-05-15T13:31:21.477Z,15.69
2019-05-15T13:33:21.363Z,15.75
2019-05-15T13:35:21.413Z,15.63
2019-05-15T13:37:27.007Z,15.63
2019-05-15T13:39:21.524Z,15.75
2019-05-15T13:39:39.023Z,15.75
2019-05-15T13:41:21.362Z,15.81
2019-05-15T13:43:21.448Z,15.94
2019-05-15T13:45:21.394Z,16.25
2019-05-15T13:47:21.491Z,16.75
2019-05-15T13:49:21.360Z,16.88
2019-05-15T13:51:21.449Z,16.81
2019-05-15T13:53:21.404Z,16.69
2019-05-15T13:54:38.592Z,16.88
2019-05-15T13:55:25.296Z,16.75
2019-05-15T13:57:21.361Z,16.69
2019-05-15T13:59:21.443Z,17.13
2019-05-15T14:01:21.473Z,17.19
2019-05-15T14:03:21.400Z,17.75
2019-05-15T14:05:21.402Z,17.94
2019-05-15T14:07:21.409Z,18.06
2019-05-15T14:09:21.425Z,18.5
2019-05-15T14:09:44.213Z,18.56
2019-05-15T14:11:22.175Z,18.38
2019-05-15T14:13:21.490Z,17.69
2019-05-15T14:15:21.405Z,17.38
2019-05-15T14:17:21.417Z,16.94
2019-05-15T14:19:21.432Z,17.31
2019-05-15T14:21:21.413Z,18.13
2019-05-15T14:23:21.411Z,18.38
2019-05-15T14:24:38.752Z,18.31
2019-05-15T14:25:21.409Z,18.44
2019-05-15T14:27:21.381Z,18.44
2019-05-15T14:29:21.624Z,18.81
2019-05-15T14:31:22.245Z,18.38
2019-05-15T14:33:21.427Z,18.63
2019-05-15T14:35:21.442Z,19.06
2019-05-15T14:37:21.432Z,19.13
2019-05-15T14:39:21.418Z,18.44
2019-05-15T14:39:38.734Z,18.31
2019-05-15T14:41:21.526Z,18.31
2019-05-15T14:43:21.363Z,18.63
2019-05-15T14:45:21.631Z,19.25
2019-05-15T14:47:21.486Z,19.25
2019-05-15T14:49:21.417Z,19.31
2019-05-15T14:51:21.422Z,18.81
2019-05-15T14:53:21.425Z,18.5
2019-05-15T14:54:38.593Z,18.25
2019-05-15T14:55:21.385Z,18.81
2019-05-15T14:57:21.506Z,19.25
2019-05-15T14:59:21.414Z,19.5
2019-05-15T15:01:21.333Z,18.69
2019-05-15T15:03:21.378Z,18.69
2019-05-15T15:05:22.831Z,19.44
2019-05-15T15:07:21.421Z,18.63
2019-05-15T15:09:21.370Z,18.06
2019-05-15T15:09:38.498Z,18.06
2019-05-15T15:11:21.408Z,18.13
2019-05-15T15:13:21.337Z,18.31
2019-05-15T15:15:22.524Z,19
2019-05-15T15:17:21.484Z,20
2019-05-15T15:19:21.540Z,19.06
2019-05-15T15:21:22.638Z,19.06
2019-05-15T15:23:21.560Z,19.69
2019-05-15T15:24:39.058Z,20.06
2019-05-15T15:25:21.411Z,19.75
2019-05-15T15:27:21.410Z,19.5
2019-05-15T15:29:21.443Z,19.94
2019-05-15T15:31:21.514Z,20.19
2019-05-15T15:33:21.391Z,19.19
2019-05-15T15:35:21.454Z,19.19
2019-05-15T15:37:21.400Z,18.88
2019-05-15T15:39:21.687Z,19.56
2019-05-15T15:39:38.766Z,19.5
2019-05-15T15:41:21.401Z,19.56
2019-05-15T15:43:21.415Z,19.69
2019-05-15T15:45:21.379Z,20.19
2019-05-15T15:47:21.366Z,20.25
2019-05-15T15:49:21.406Z,19.75
2019-05-15T15:51:21.366Z,19.69
2019-05-15T15:53:21.424Z,19.94
2019-05-15T15:54:39.436Z,19.5
2019-05-15T15:55:21.369Z,19.88
2019-05-15T15:57:21.402Z,19.56
2019-05-15T15:59:21.367Z,19.31
2019-05-15T16:01:23.899Z,20.13
2019-05-15T16:03:22.424Z,20.31
2019-05-15T16:05:21.530Z,20.38
2019-05-15T16:07:21.393Z,20.56
2019-05-15T16:09:21.436Z,19.63
2019-05-15T16:09:38.851Z,19.56
2019-05-15T16:11:21.411Z,19.5
2019-05-15T16:13:21.489Z,19.38
2019-05-15T16:15:21.463Z,19.5
2019-05-15T16:17:21.407Z,19.13
2019-05-15T16:19:21.503Z,18.94
2019-05-15T16:21:21.506Z,18.94
2019-05-15T16:23:21.359Z,19.31
2019-05-15T16:24:38.683Z,19.06
2019-05-15T16:25:21.493Z,18.94
2019-05-15T16:27:21.420Z,18.69
2019-05-15T16:29:21.471Z,18.94
2019-05-15T16:31:21.363Z,18.69
2019-05-15T16:33:21.365Z,19
2019-05-15T16:35:21.417Z,18.88
2019-05-15T16:37:21.411Z,19.25
2019-05-15T16:39:21.339Z,19.63
2019-05-15T16:39:38.448Z,19.56
2019-05-15T16:41:21.402Z,19.56
2019-05-15T16:43:22.291Z,19.25
2019-05-15T16:45:21.507Z,19.06
2019-05-15T16:47:21.493Z,18.69
2019-05-15T16:49:21.408Z,19.56
2019-05-15T16:51:21.416Z,18.81
2019-05-15T16:53:21.410Z,18.69
2019-05-15T16:54:38.578Z,18.13
2019-05-15T16:55:21.434Z,18.25
2019-05-15T16:57:21.370Z,18.75
2019-05-15T16:59:21.417Z,19.13
2019-05-15T17:01:21.414Z,18.88
2019-05-15T17:03:21.451Z,18.5
2019-05-15T17:05:21.417Z,18.75
2019-05-15T17:07:21.446Z,18.63
2019-05-15T17:09:21.817Z,18.63
2019-05-15T17:09:38.805Z,18.69
2019-05-15T17:11:21.459Z,18.56
2019-05-15T17:13:21.398Z,18.88
2019-05-15T17:15:21.423Z,18.63
2019-05-15T17:17:21.357Z,18.88
2019-05-15T17:19:21.500Z,19
2019-05-15T17:21:21.457Z,18.63
2019-05-15T17:23:21.428Z,18.5
2019-05-15T17:24:38.827Z,18.25
2019-05-15T17:25:21.438Z,18.56
2019-05-15T17:27:21.422Z,18.81
2019-05-15T17:29:22.262Z,18.5
2019-05-15T17:31:21.390Z,18.56
2019-05-15T17:33:21.403Z,18.63
2019-05-15T17:35:21.400Z,18.81
2019-05-15T17:37:21.440Z,19.06
2019-05-15T17:39:33.606Z,18.63
2019-05-15T17:39:41.604Z,18.75
2019-05-15T17:41:21.421Z,18.44
2019-05-15T17:43:21.414Z,18
2019-05-15T17:45:21.360Z,17.88
2019-05-15T17:47:21.413Z,18.31
2019-05-15T17:49:21.396Z,18.38
2019-05-15T17:51:21.502Z,18.38
2019-05-15T17:53:21.423Z,18.13
2019-05-15T17:54:38.462Z,17.63
2019-05-15T17:55:21.317Z,17.69
2019-05-15T17:57:21.416Z,17.94
2019-05-15T17:59:21.496Z,18
2019-05-15T18:01:21.417Z,17.44
2019-05-15T18:03:21.415Z,17.25
2019-05-15T18:05:21.420Z,17.25
2019-05-15T18:07:21.484Z,17.31
2019-05-15T18:09:21.441Z,17.25
2019-05-15T18:09:50.131Z,17.13
2019-05-15T18:11:21.391Z,17.13
2019-05-15T18:13:21.525Z,16.81
2019-05-15T18:15:21.403Z,16.69
2019-05-15T18:17:21.370Z,16.63
2019-05-15T18:19:21.358Z,16.44
2019-05-15T18:21:21.281Z,16.44
2019-05-15T18:23:23.557Z,16.13
2019-05-15T18:24:38.403Z,16
2019-05-15T18:25:21.361Z,15.94
2019-05-15T18:27:21.443Z,15.69
2019-05-15T18:29:22.297Z,15.63
2019-05-15T18:31:21.417Z,15.56
2019-05-15T18:33:21.353Z,15.56
2019-05-15T18:35:21.527Z,15.5
2019-05-15T18:37:21.360Z,15.44
2019-05-15T18:39:21.427Z,15.25
2019-05-15T18:39:38.890Z,15.31
2019-05-15T18:41:21.399Z,15.13
2019-05-15T18:43:21.417Z,15
2019-05-15T18:45:21.490Z,14.81
2019-05-15T18:47:21.828Z,14.63
2019-05-15T18:49:21.396Z,14.69
2019-05-15T18:51:21.491Z,14.63
2019-05-15T18:53:28.312Z,14.75
2019-05-15T18:54:38.788Z,14.75
2019-05-15T18:55:22.538Z,14.63
2019-05-15T18:57:21.419Z,14.56
2019-05-15T18:59:21.473Z,14.5
2019-05-15T19:01:21.479Z,14.38
2019-05-15T19:03:22.783Z,14.38
2019-05-15T19:05:21.375Z,14.19
2019-05-15T19:07:21.414Z,14.06
2019-05-15T19:09:21.437Z,13.88
2019-05-15T19:09:38.711Z,13.94
2019-05-15T19:11:21.430Z,13.88
2019-05-15T19:13:21.420Z,13.94
2019-05-15T19:15:21.505Z,13.88
2019-05-15T19:17:21.443Z,13.75
2019-05-15T19:19:21.504Z,13.69
2019-05-15T19:21:22.298Z,13.5
2019-05-15T19:23:21.502Z,13.63
2019-05-15T19:24:40.151Z,13.56
2019-05-15T19:25:21.423Z,13.56
2019-05-15T19:27:21.497Z,13.44
2019-05-15T19:29:21.465Z,13.56
2019-05-15T19:31:26.172Z,13.5
2019-05-15T19:33:33.248Z,13.56
2019-05-15T19:35:21.431Z,13.38
2019-05-15T19:37:21.385Z,13.19
2019-05-15T19:39:21.413Z,13.13
2019-05-15T19:39:38.603Z,13.13
2019-05-15T19:41:22.316Z,13.13
2019-05-15T19:43:21.500Z,13.13
2019-05-15T19:45:21.424Z,13.06
2019-05-15T19:47:21.418Z,13
2019-05-15T19:49:21.426Z,13
2019-05-15T19:51:21.518Z,12.94
2019-05-15T19:53:21.422Z,12.94
2019-05-15T19:54:38.321Z,12.94
2019-05-15T19:55:21.436Z,12.94
2019-05-15T19:57:21.408Z,12.88
2019-05-15T19:59:22.594Z,12.81
2019-05-15T20:01:21.378Z,12.81
2019-05-15T20:03:21.434Z,12.75
2019-05-15T20:05:21.415Z,12.69
2019-05-15T20:07:21.448Z,12.69
2019-05-15T20:09:21.409Z,12.63
2019-05-15T20:09:38.470Z,12.63
2019-05-15T20:11:21.750Z,12.56
2019-05-15T20:13:21.431Z,12.5
2019-05-15T20:15:21.522Z,12.38
2019-05-15T20:17:21.386Z,12.38
2019-05-15T20:19:21.457Z,12.38
2019-05-15T20:21:21.414Z,12.38
2019-05-15T20:23:21.416Z,12.38
2019-05-15T20:24:38.479Z,12.38
2019-05-15T20:25:21.440Z,12.31
2019-05-15T20:27:21.414Z,12.25
2019-05-15T20:29:21.417Z,12.19
2019-05-15T20:31:21.503Z,12.19
2019-05-15T20:33:21.497Z,12.13
2019-05-15T20:35:21.444Z,11.94
2019-05-15T20:37:22.285Z,12
2019-05-15T20:39:21.419Z,12
2019-05-15T20:39:38.607Z,11.94
2019-05-15T20:41:21.420Z,11.88
2019-05-15T20:43:21.558Z,11.94
2019-05-15T20:45:21.378Z,11.81
2019-05-15T20:47:21.402Z,11.81
2019-05-15T20:49:21.435Z,11.69
2019-05-15T20:51:22.321Z,11.69
2019-05-15T20:53:21.353Z,11.63
2019-05-15T20:54:38.732Z,11.63
2019-05-15T20:55:21.431Z,11.56
2019-05-15T20:57:21.440Z,11.56
2019-05-15T20:59:21.459Z,11.56
2019-05-15T21:01:21.422Z,11.56
2019-05-15T21:03:21.507Z,11.5
2019-05-15T21:05:21.415Z,11.5
2019-05-15T21:07:34.694Z,11.44
2019-05-15T21:09:21.495Z,11.31
2019-05-15T21:09:39.656Z,11.31
2019-05-15T21:11:21.424Z,11.31
2019-05-15T21:13:21.506Z,11.31
2019-05-15T21:15:21.684Z,11.25
2019-05-15T21:17:21.504Z,11.38
2019-05-15T21:19:21.376Z,11.25
2019-05-15T21:21:21.499Z,11.19
2019-05-15T21:23:21.499Z,11.19
2019-05-15T21:24:38.411Z,11.19
2019-05-15T21:25:21.493Z,11.13
2019-05-15T21:27:23.908Z,11.06
2019-05-15T21:29:21.515Z,11.13
2019-05-15T21:31:22.166Z,11.13
2019-05-15T21:33:21.419Z,11.06
2019-05-15T21:35:21.550Z,11.06
2019-05-15T21:37:21.471Z,11
2019-05-15T21:39:21.428Z,11.06
2019-05-15T21:39:39.097Z,11
2019-05-15T21:41:21.426Z,10.94
2019-05-15T21:43:21.426Z,10.94
2019-05-15T21:45:21.419Z,10.88
2019-05-15T21:47:21.424Z,10.88
2019-05-15T21:49:21.394Z,10.88
2019-05-15T21:51:21.380Z,10.88
2019-05-15T21:53:21.421Z,10.75
2019-05-15T21:54:38.676Z,10.69
2019-05-15T21:55:21.343Z,10.69
2019-05-15T21:57:32.587Z,10.75
2019-05-15T21:59:21.354Z,10.75
2019-05-15T22:01:21.427Z,10.81
2019-05-15T22:03:21.515Z,10.69
2019-05-15T22:05:21.477Z,10.63
2019-05-15T22:07:21.451Z,10.69
2019-05-15T22:09:21.298Z,10.69
2019-05-15T22:09:38.399Z,10.69
2019-05-15T22:11:21.777Z,10.63
2019-05-15T22:13:21.415Z,10.63
2019-05-15T22:15:21.483Z,10.63
2019-05-15T22:17:21.458Z,10.75
2019-05-15T22:19:21.476Z,10.75
2019-05-15T22:21:21.447Z,10.69
2019-05-15T22:23:21.412Z,10.63
2019-05-15T22:24:38.414Z,10.63
2019-05-15T22:25:27.970Z,10.56
2019-05-15T22:27:22.401Z,10.56
2019-05-15T22:29:21.705Z,10.56
2019-05-15T22:31:21.539Z,10.56
2019-05-15T22:33:21.561Z,10.5
2019-05-15T22:35:21.373Z,10.56
2019-05-15T22:37:21.647Z,10.44
2019-05-15T22:39:21.423Z,10.5
2019-05-15T22:39:39.403Z,10.5
2019-05-15T22:41:21.446Z,10.38
2019-05-15T22:43:21.449Z,10.25
2019-05-15T22:45:21.418Z,10.25
2019-05-15T22:47:21.412Z,10.19
2019-05-15T22:49:21.420Z,10.19
2019-05-15T22:51:22.272Z,10.13
2019-05-15T22:53:21.466Z,10.13
2019-05-15T22:54:38.738Z,10.19
2019-05-15T22:55:21.368Z,10.19
2019-05-15T22:57:21.409Z,10.13
2019-05-15T22:59:21.414Z,10.13
2019-05-15T23:01:21.400Z,10.19
2019-05-15T23:03:21.426Z,10.13
2019-05-15T23:05:27.452Z,10.06
2019-05-15T23:07:21.330Z,10.06
2019-05-15T23:09:21.424Z,10.13
2019-05-15T23:09:38.485Z,10.13
2019-05-15T23:11:24.306Z,10.06
2019-05-15T23:13:21.394Z,10.06
2019-05-15T23:15:21.390Z,9.94
2019-05-15T23:17:21.350Z,9.94
2019-05-15T23:19:21.500Z,9.88
2019-05-15T23:21:21.430Z,9.81
2019-05-15T23:23:21.344Z,9.81
2019-05-15T23:24:38.766Z,9.88
2019-05-15T23:25:21.429Z,9.88
2019-05-15T23:27:21.487Z,9.81
2019-05-15T23:29:21.424Z,9.88
2019-05-15T23:31:21.436Z,9.94
2019-05-15T23:33:21.425Z,9.88
2019-05-15T23:35:33.450Z,9.81
2019-05-15T23:37:21.386Z,9.81
2019-05-15T23:39:21.426Z,9.81
2019-05-15T23:39:38.541Z,9.81
2019-05-15T23:41:21.345Z,9.81
2019-05-15T23:43:21.344Z,9.81
2019-05-15T23:45:21.383Z,9.81
2019-05-15T23:47:21.429Z,9.75
2019-05-15T23:49:21.431Z,9.75
2019-05-15T23:51:21.494Z,9.69
2019-05-15T23:53:21.456Z,9.63
2019-05-15T23:54:38.574Z,9.63
2019-05-15T23:55:21.399Z,9.56
2019-05-15T23:57:21.420Z,9.56
2019-05-15T23:59:21.414Z,9.5
